This is the latest recevied weather packets stored in our database for station/object NI4CE-10. If no packets are shown the sender has not sent any weather packets the latest 1 day(s).
| Time | Temp. | Humidity | Pressure | Rain* | Wind** | Luminosity | Snow |
|---|---|---|---|---|---|---|---|
| 1778007347 | 31.11° C | 100% | 1016.9 hPa | 0 mm | 1.34 m/s, 149° | - | - |
| 1778007102 | 32.22° C | 100% | 1016.9 hPa | 0 mm | 0 m/s | - | - |
| 1778007047 | 32.22° C | 100% | 1016.9 hPa | 0 mm | 0 m/s | - | - |
| 1778006835 | 30.56° C | 100% | 1017 hPa | 0 mm | 0.45 m/s, 25° | - | - |
| 1778006747 | 30.56° C | 100% | 1017 hPa | 0 mm | 0.45 m/s, 25° | - | - |
| 1778006447 | 31.11° C | 100% | 1017.1 hPa | 0 mm | 1.79 m/s, 88° | - | - |
| 1778006211 | 31.11° C | 100% | 1017.1 hPa | 0 mm | 0 m/s | - | - |
| 1778006188 | 31.67° C | 100% | 1017.1 hPa | 0 mm | 2.24 m/s, 104° | - | - |
| 1778006147 | 31.11° C | 100% | 1017.1 hPa | 0 mm | 0 m/s | - | - |
| 1778005935 | 31.67° C | 100% | 1017.1 hPa | 0 mm | 2.24 m/s, 104° | - | - |
| 1778005847 | 31.67° C | 100% | 1017.1 hPa | 0 mm | 2.24 m/s, 104° | - | - |
| 1778005637 | 30.56° C | 100% | 1017.2 hPa | 0 mm | 1.79 m/s, 123° | - | - |
| 1778005547 | 30.56° C | 100% | 1017.2 hPa | 0 mm | 1.79 m/s, 123° | - | - |
| 1778005335 | 30° C | 100% | 1017.4 hPa | 0 mm | 2.24 m/s, 91° | - | - |
| 1778005247 | 30° C | 100% | 1017.4 hPa | 0 mm | 2.24 m/s, 91° | - | - |
| 1778005003 | 30° C | 100% | 1017.5 hPa | 0 mm | 0.89 m/s, 92° | - | - |
| 1778004947 | 30° C | 100% | 1017.5 hPa | 0 mm | 0.89 m/s, 92° | - | - |
| 1778004759 | 31.67° C | 100% | 1017.5 hPa | 0 mm | 0 m/s | - | - |
| 1778004647 | 31.67° C | 100% | 1017.5 hPa | 0 mm | 0 m/s | - | - |
| 1778004347 | 31.67° C | 100% | 1017.5 hPa | 0 mm | 1.79 m/s, 165° | - | - |
| 1778004197 | 31.67° C | 100% | 1017.6 hPa | 0 mm | 2.24 m/s, 146° | - | - |
| 1778004047 | 31.67° C | 100% | 1017.6 hPa | 0 mm | 2.24 m/s, 146° | - | - |
| 1778003747 | 31.11° C | 100% | 1017.7 hPa | 0 mm | 0.45 m/s, 32° | - | - |
| 1778003522 | 30.56° C | 100% | 1017.7 hPa | 0 mm | 2.68 m/s, 99° | - | - |
| 1778003447 | 30.56° C | 100% | 1017.7 hPa | 0 mm | 2.68 m/s, 99° | - | - |
* Rain latest hour (hover to see other rain measurements)
** Current wind speed in m/s (hover to see current wind gust speed)